Time;durP1;ratioP1;P1;durP2;ratioP2;P2;SDS_P1;SDS_P2;PMS_P1;PMS_P2;Temp;Humidity;BMP_temperature;BMP_pressure;BME280_temperature;BME280_humidity;BME280_pressure;Samples;Min_cycle;Max_cycle;Signal;HPM_P1;HPM_P2
2024/04/13 00:01:46;;;;;;;;;;;;;;;21.28;42.96;102270.83;110585;1253;22451;-55
2024/04/13 00:04:13;;;;;;;;;;;;;;;21.27;43.31;102271.94;110623;1259;22446;-55
2024/04/13 00:06:40;;;;;;;;;;;;;;;21.26;43.39;102274.27;110677;1256;22432;-55
2024/04/13 00:09:11;;;;;;;;;;;;;;;21.25;43.33;102277.67;110630;1259;22476;-55
2024/04/13 00:11:38;;;;;;;;;;;;;;;21.22;43.07;102274.45;110619;1256;22418;-55
2024/04/13 00:14:04;;;;;;;;;;;;;;;21.21;43.11;102278.36;110663;1256;22428;-54
2024/04/13 00:16:31;;;;;;;;;;;;;;;21.17;43.13;102274.29;110669;1252;22449;-55
2024/04/13 00:18:58;;;;;;;;;;;;;;;21.15;42.99;102273.14;110625;1256;23277;-55
2024/04/13 00:21:24;;;;;;;;;;;;;;;21.08;42.96;102275.39;110687;1256;22444;-55
2024/04/13 00:23:52;;;;;;;;;;;;;;;21.11;43.06;102268.76;110623;1259;23244;-55
2024/04/13 00:26:19;;;;;;;;;;;;;;;21.09;43.49;102271.65;110628;1256;22506;-55
2024/04/13 00:28:46;;;;;;;;;;;;;;;21.11;43.59;102269.27;110647;1256;22463;-55
2024/04/13 00:31:12;;;;;;;;;;;;;;;21.10;43.49;102271.27;110627;1262;22468;-55
2024/04/13 00:33:39;;;;;;;;;;;;;;;21.04;42.89;102271.46;110381;1270;22458;-55
2024/04/13 00:36:06;;;;;;;;;;;;;;;21.00;42.39;102272.84;110625;1265;22471;-55
2024/04/13 00:38:33;;;;;;;;;;;;;;;20.94;42.20;102273.27;110616;1256;23201;-55
2024/04/13 00:41:00;;;;;;;;;;;;;;;20.92;42.87;102276.88;110616;1254;22464;-55
2024/04/13 00:43:26;;;;;;;;;;;;;;;20.88;43.26;102276.17;110748;1256;22414;-55
2024/04/13 00:45:55;;;;;;;;;;;;;;;20.84;43.24;102273.85;110633;1256;22459;-55
2024/04/13 00:48:24;;;;;;;;;;;;;;;20.81;43.28;102278.21;110613;1255;23199;-55
2024/04/13 00:50:54;;;;;;;;;;;;;;;20.78;42.96;102280.47;110643;1256;22441;-55
2024/04/13 00:53:20;;;;;;;;;;;;;;;20.75;42.87;102281.47;110632;1254;22460;-55
2024/04/13 00:55:47;;;;;;;;;;;;;;;20.71;42.74;102277.05;110629;1265;22525;-55
2024/04/13 00:58:13;;;;;;;;;;;;;;;20.68;43.08;102279.64;110667;1256;22441;-55
2024/04/13 01:00:40;;;;;;;;;;;;;;;20.66;43.81;102278.64;110638;1263;22439;-55
2024/04/13 01:03:08;;;;;;;;;;;;;;;20.63;43.26;102276.65;110624;1256;22520;-55
2024/04/13 01:05:35;;;;;;;;;;;;;;;20.61;42.90;102276.94;110642;1265;22459;-55
2024/04/13 01:08:02;;;;;;;;;;;;;;;20.59;43.26;102279.27;110597;1256;22458;-55
2024/04/13 01:10:29;;;;;;;;;;;;;;;20.58;42.52;102275.79;110663;1256;22444;-55
2024/04/13 01:12:55;;;;;;;;;;;;;;;20.54;41.69;102277.71;110640;1256;22447;-55
2024/04/13 01:15:27;;;;;;;;;;;;;;;20.51;41.68;102277.99;110643;1263;23204;-55
2024/04/13 01:17:54;;;;;;;;;;;;;;;20.48;41.80;102279.54;110632;1265;22430;-55
2024/04/13 01:20:21;;;;;;;;;;;;;;;20.47;42.38;102276.06;110590;1256;22683;-55
2024/04/13 01:22:47;;;;;;;;;;;;;;;20.47;43.02;102272.18;110620;1256;22474;-55
2024/04/13 01:25:14;;;;;;;;;;;;;;;20.48;43.31;102273.02;110708;1263;22441;-55
2024/04/13 01:27:41;;;;;;;;;;;;;;;20.46;43.63;102270.27;110622;1265;22429;-55
2024/04/13 01:30:14;;;;;;;;;;;;;;;20.46;44.27;102269.25;110628;1263;22525;-55
2024/04/13 01:32:40;;;;;;;;;;;;;;;20.42;44.54;102267.96;110572;1256;22452;-55
2024/04/13 01:35:09;;;;;;;;;;;;;;;20.23;44.79;102268.54;110291;1267;23192;-55
2024/04/13 01:37:37;;;;;;;;;;;;;;;20.14;45.18;102265.66;110648;1256;23255;-55
2024/04/13 01:40:07;;;;;;;;;;;;;;;20.13;45.14;102263.96;110657;1256;22432;-55
2024/04/13 01:42:34;;;;;;;;;;;;;;;20.20;44.69;102266.87;110626;1256;22445;-55
2024/04/13 01:45:01;;;;;;;;;;;;;;;20.33;44.35;102268.16;110580;1256;22444;-56
2024/04/13 01:47:27;;;;;;;;;;;;;;;20.31;44.70;102264.84;110560;1265;22410;-55
2024/04/13 01:49:54;;;;;;;;;;;;;;;20.29;44.88;102271.29;110587;1256;22484;-55
2024/04/13 01:52:21;;;;;;;;;;;;;;;20.30;44.77;102264.73;110621;1266;22507;-55
2024/04/13 01:54:48;;;;;;;;;;;;;;;20.22;44.67;102268.04;110586;1262;23284;-55
2024/04/13 01:57:14;;;;;;;;;;;;;;;20.04;45.26;102264.27;110603;1262;22451;-55
2024/04/13 01:59:41;;;;;;;;;;;;;;;19.99;45.29;102262.56;110416;1268;22440;-55
2024/04/13 02:02:08;;;;;;;;;;;;;;;19.94;45.28;102262.89;110393;1266;23214;-55
2024/04/13 02:04:35;;;;;;;;;;;;;;;19.90;44.74;102262.69;110603;1256;22515;-55
2024/04/13 02:07:02;;;;;;;;;;;;;;;19.86;44.43;102263.02;110582;1258;22432;-55
2024/04/13 02:09:29;;;;;;;;;;;;;;;19.83;44.53;102267.52;110608;1259;22456;-55
2024/04/13 02:11:56;;;;;;;;;;;;;;;19.97;44.26;102263.67;110575;1266;23202;-55
2024/04/13 02:14:22;;;;;;;;;;;;;;;20.01;43.42;102264.75;110601;1253;23234;-55
2024/04/13 02:16:50;;;;;;;;;;;;;;;19.98;43.15;102263.65;110573;1267;22527;-54
2024/04/13 02:19:16;;;;;;;;;;;;;;;19.95;43.17;102263.75;110443;1266;23068;-55
2024/04/13 02:21:43;;;;;;;;;;;;;;;19.91;43.16;102261.77;110651;1260;22449;-55
2024/04/13 02:24:10;;;;;;;;;;;;;;;19.88;43.42;102257.66;109905;1256;1003236;-55
2024/04/13 02:26:36;;;;;;;;;;;;;;;19.86;43.46;102259.16;110633;1255;22417;-55
2024/04/13 02:29:03;;;;;;;;;;;;;;;19.85;43.58;102261.64;110622;1264;22496;-55
2024/04/13 02:31:30;;;;;;;;;;;;;;;19.85;43.27;102262.88;110633;1256;22531;-55
2024/04/13 02:33:56;;;;;;;;;;;;;;;19.85;43.50;102261.99;110612;1262;22449;-55
2024/04/13 02:36:23;;;;;;;;;;;;;;;19.80;43.70;102264.46;110671;1256;22465;-55
2024/04/13 02:38:49;;;;;;;;;;;;;;;19.81;43.57;102263.89;110552;1263;22836;-55
2024/04/13 02:41:16;;;;;;;;;;;;;;;19.81;43.74;102265.48;110597;1261;22443;-55
2024/04/13 02:43:43;;;;;;;;;;;;;;;19.77;44.15;102260.70;109651;1266;1003246;-55
2024/04/13 02:46:11;;;;;;;;;;;;;;;19.77;44.19;102257.71;110579;1256;23462;-55
2024/04/13 02:48:38;;;;;;;;;;;;;;;19.76;44.33;102258.63;110572;1255;22400;-55
2024/04/13 02:51:13;;;;;;;;;;;;;;;19.76;44.52;102259.70;110569;1252;23127;-55
2024/04/13 02:53:40;;;;;;;;;;;;;;;19.74;44.64;102261.72;110619;1264;23183;-55
2024/04/13 02:56:07;;;;;;;;;;;;;;;19.70;44.73;102260.95;110579;1263;22440;-54
2024/04/13 02:58:33;;;;;;;;;;;;;;;19.68;45.07;102265.44;110588;1261;22453;-55
2024/04/13 03:01:00;;;;;;;;;;;;;;;19.66;45.41;102268.67;110597;1256;22458;-55
2024/04/13 03:03:27;;;;;;;;;;;;;;;19.66;45.59;102270.97;110450;1264;22459;-55
2024/04/13 03:06:04;;;;;;;;;;;;;;;19.64;45.56;102269.13;110603;1256;23196;-55
2024/04/13 03:08:31;;;;;;;;;;;;;;;19.60;45.62;102270.14;110615;1256;22433;-54
2024/04/13 03:10:58;;;;;;;;;;;;;;;19.59;45.71;102268.94;110585;1257;23087;-55
2024/04/13 03:13:25;;;;;;;;;;;;;;;19.59;45.63;102269.64;110420;1266;23192;-55
2024/04/13 03:16:03;;;;;;;;;;;;;;;19.59;45.82;102267.36;110615;1257;23219;-55
2024/04/13 03:18:30;;;;;;;;;;;;;;;19.58;45.89;102267.55;110607;1267;22485;-55
2024/04/13 03:20:57;;;;;;;;;;;;;;;19.58;46.20;102269.33;110589;1256;23129;-55
2024/04/13 03:23:24;;;;;;;;;;;;;;;19.57;46.29;102267.44;110608;1255;22519;-55
2024/04/13 03:25:50;;;;;;;;;;;;;;;19.56;46.49;102265.89;110615;1266;22468;-55
2024/04/13 03:28:20;;;;;;;;;;;;;;;19.56;46.41;102266.95;110218;1273;22516;-55
2024/04/13 03:30:46;;;;;;;;;;;;;;;19.56;46.45;102267.64;110619;1256;22900;-55
2024/04/13 03:33:14;;;;;;;;;;;;;;;19.57;46.63;102269.02;110447;1260;23218;-54
2024/04/13 03:35:41;;;;;;;;;;;;;;;19.59;46.21;102270.87;110627;1263;22460;-54
2024/04/13 03:38:07;;;;;;;;;;;;;;;19.59;46.44;102270.34;110620;1266;22506;-55
2024/04/13 03:40:37;;;;;;;;;;;;;;;19.60;46.76;102272.08;110634;1256;22428;-55
2024/04/13 03:43:03;;;;;;;;;;;;;;;19.60;46.85;102274.18;110563;1267;22433;-54
2024/04/13 03:45:30;;;;;;;;;;;;;;;19.61;46.77;102272.55;110373;1259;22456;-55
2024/04/13 03:47:57;;;;;;;;;;;;;;;19.61;46.64;102274.67;110525;1256;22407;-55
2024/04/13 03:50:23;;;;;;;;;;;;;;;19.62;46.51;102272.91;110619;1270;22433;-55
2024/04/13 03:52:50;;;;;;;;;;;;;;;19.63;46.37;102276.02;110615;1257;22448;-54
2024/04/13 03:55:17;;;;;;;;;;;;;;;19.65;46.18;102275.60;110600;1263;22533;-54
2024/04/13 03:57:43;;;;;;;;;;;;;;;19.66;46.25;102282.23;110651;1251;22540;-54
2024/04/13 04:00:10;;;;;;;;;;;;;;;19.68;46.03;102285.54;110570;1254;22438;-54
2024/04/13 04:02:40;;;;;;;;;;;;;;;19.68;46.21;102286.95;110612;1257;22496;-54
2024/04/13 04:05:06;;;;;;;;;;;;;;;19.70;45.78;102288.98;110584;1251;22463;-55
2024/04/13 04:07:34;;;;;;;;;;;;;;;19.71;45.80;102287.34;110268;1261;22542;-55
2024/04/13 04:10:00;;;;;;;;;;;;;;;19.72;46.01;102287.15;110611;1255;22468;-56
2024/04/13 04:12:27;;;;;;;;;;;;;;;19.72;45.68;102287.29;110555;1266;22423;-55
2024/04/13 04:14:54;;;;;;;;;;;;;;;19.72;45.19;102287.84;110572;1261;23146;-55
2024/04/13 04:17:20;;;;;;;;;;;;;;;19.71;45.02;102290.87;110637;1267;22438;-54
2024/04/13 04:19:47;;;;;;;;;;;;;;;19.71;44.99;102287.32;110627;1264;22417;-54
2024/04/13 04:22:14;;;;;;;;;;;;;;;19.86;44.70;102284.51;110555;1263;22435;-55
2024/04/13 04:24:41;;;;;;;;;;;;;;;19.95;44.74;102286.11;110636;1257;22539;-55
2024/04/13 04:27:07;;;;;;;;;;;;;;;19.83;45.16;102282.16;110643;1254;23089;-55
2024/04/13 04:29:34;;;;;;;;;;;;;;;19.74;45.66;102283.88;110611;1256;22458;-55
2024/04/13 04:32:01;;;;;;;;;;;;;;;19.68;45.89;102286.05;110660;1255;23315;-55
2024/04/13 04:34:29;;;;;;;;;;;;;;;19.68;46.05;102284.30;110628;1251;22501;-55
2024/04/13 04:36:56;;;;;;;;;;;;;;;19.68;46.04;102280.77;110566;1256;22452;-55
2024/04/13 04:39:23;;;;;;;;;;;;;;;19.68;46.19;102287.79;110708;1263;22422;-55
2024/04/13 04:41:51;;;;;;;;;;;;;;;19.71;46.32;102285.59;110557;1264;22419;-55
2024/04/13 04:44:17;;;;;;;;;;;;;;;19.73;46.35;102292.36;110606;1253;22433;-55
2024/04/13 04:46:44;;;;;;;;;;;;;;;19.74;46.34;102293.59;110393;1262;22508;-54
2024/04/13 04:49:13;;;;;;;;;;;;;;;19.76;46.06;102297.72;110588;1251;22509;-55
2024/04/13 04:51:40;;;;;;;;;;;;;;;19.77;45.93;102299.27;110625;1257;23150;-55
2024/04/13 04:54:10;;;;;;;;;;;;;;;19.79;45.86;102302.90;110638;1261;23183;-55
2024/04/13 04:56:37;;;;;;;;;;;;;;;19.81;45.71;102305.10;110635;1263;22699;-55
2024/04/13 04:59:04;;;;;;;;;;;;;;;19.82;45.63;102304.38;110560;1257;22427;-55
2024/04/13 05:01:30;;;;;;;;;;;;;;;19.82;45.15;102303.86;110220;1264;22460;-55
2024/04/13 05:03:57;;;;;;;;;;;;;;;19.83;44.94;102302.23;110488;1257;22478;-55
2024/04/13 05:06:24;;;;;;;;;;;;;;;19.84;44.84;102294.98;110569;1257;23199;-55
2024/04/13 05:08:51;;;;;;;;;;;;;;;19.85;44.63;102294.77;110415;1258;22455;-55
2024/04/13 05:11:17;;;;;;;;;;;;;;;19.84;44.52;102295.83;110593;1267;22453;-55
2024/04/13 05:13:44;;;;;;;;;;;;;;;19.87;44.34;102293.79;110618;1257;22441;-55
2024/04/13 05:16:11;;;;;;;;;;;;;;;19.92;44.30;102294.33;110394;1260;22481;-55
2024/04/13 05:18:37;;;;;;;;;;;;;;;19.95;44.34;102293.17;110566;1264;22463;-54
2024/04/13 05:21:04;;;;;;;;;;;;;;;19.96;44.32;102293.48;110576;1251;23241;-54
2024/04/13 05:23:31;;;;;;;;;;;;;;;19.97;44.26;102296.09;110630;1257;23290;-55
2024/04/13 05:25:58;;;;;;;;;;;;;;;19.99;44.44;102297.05;110548;1251;22446;-55
2024/04/13 05:28:26;;;;;;;;;;;;;;;20.04;44.41;102296.02;110593;1263;23221;-55
2024/04/13 05:30:56;;;;;;;;;;;;;;;20.08;44.08;102290.57;110592;1260;22445;-55
2024/04/13 05:33:23;;;;;;;;;;;;;;;20.12;43.96;102287.59;110577;1263;22527;-55
2024/04/13 05:35:50;;;;;;;;;;;;;;;20.18;43.99;102289.12;110581;1254;22488;-56
2024/04/13 05:38:16;;;;;;;;;;;;;;;20.25;43.61;102289.77;110578;1257;22430;-55
2024/04/13 05:40:43;;;;;;;;;;;;;;;20.29;43.74;102291.39;110575;1261;22424;-55
2024/04/13 05:43:10;;;;;;;;;;;;;;;20.35;43.52;102292.35;110583;1251;23220;-55
2024/04/13 05:45:39;;;;;;;;;;;;;;;20.45;43.29;102292.20;110600;1251;22521;-55
2024/04/13 05:48:06;;;;;;;;;;;;;;;20.59;43.01;102288.11;110424;1259;22541;-55
2024/04/13 05:50:33;;;;;;;;;;;;;;;20.77;42.58;102289.14;110546;1263;22426;-55
2024/04/13 05:53:00;;;;;;;;;;;;;;;20.93;42.69;102291.11;110601;1251;22527;-55
2024/04/13 05:55:26;;;;;;;;;;;;;;;21.15;42.50;102297.34;110574;1264;23193;-55
2024/04/13 05:57:53;;;;;;;;;;;;;;;21.39;42.16;102289.61;110607;1256;22447;-55
2024/04/13 06:00:20;;;;;;;;;;;;;;;21.73;41.52;102292.54;110650;1256;22529;-55
2024/04/13 06:02:46;;;;;;;;;;;;;;;22.13;40.67;102292.34;110692;1257;23172;-55
2024/04/13 06:05:13;;;;;;;;;;;;;;;22.52;39.63;102293.50;110576;1251;22440;-56
2024/04/13 06:07:40;;;;;;;;;;;;;;;22.86;38.81;102289.77;110280;1259;22503;-55
2024/04/13 06:10:07;;;;;;;;;;;;;;;23.16;38.42;102290.41;110564;1254;22443;-56
2024/04/13 06:12:34;;;;;;;;;;;;;;;23.41;37.74;102288.27;110568;1255;23067;-57
2024/04/13 06:15:01;;;;;;;;;;;;;;;23.63;37.42;102290.69;110338;1274;22449;-56
2024/04/13 06:17:28;;;;;;;;;;;;;;;23.90;37.07;102290.99;110570;1251;22440;-56
2024/04/13 06:19:55;;;;;;;;;;;;;;;24.20;36.43;102291.18;110563;1264;23074;-56
2024/04/13 06:22:23;;;;;;;;;;;;;;;24.43;35.91;102296.13;110619;1254;22684;-56
2024/04/13 06:24:50;;;;;;;;;;;;;;;24.57;35.57;102296.38;110578;1251;22432;-55
2024/04/13 06:27:17;;;;;;;;;;;;;;;24.60;35.28;102289.80;110685;1251;22422;-56
2024/04/13 06:29:48;;;;;;;;;;;;;;;24.54;35.33;102291.42;110593;1256;22464;-56
2024/04/13 06:32:15;;;;;;;;;;;;;;;24.57;35.86;102287.52;110649;1252;22443;-56
2024/04/13 06:34:42;;;;;;;;;;;;;;;24.76;35.26;102286.48;110594;1253;23365;-56
2024/04/13 06:37:08;;;;;;;;;;;;;;;24.85;34.82;102284.84;110609;1261;22498;-56
2024/04/13 06:39:35;;;;;;;;;;;;;;;24.87;34.72;102283.51;110326;1266;22461;-56
2024/04/13 06:42:02;;;;;;;;;;;;;;;24.86;35.10;102283.23;110526;1274;22476;-56
2024/04/13 06:44:29;;;;;;;;;;;;;;;24.97;34.67;102284.85;110588;1274;23185;-56
2024/04/13 06:46:56;;;;;;;;;;;;;;;24.99;34.10;102289.71;110560;1267;22456;-56
2024/04/13 06:49:22;;;;;;;;;;;;;;;24.97;34.45;102290.73;110320;1274;22622;-56
2024/04/13 06:51:49;;;;;;;;;;;;;;;25.06;34.55;102288.95;110577;1267;22473;-56
2024/04/13 06:54:16;;;;;;;;;;;;;;;25.23;34.52;102286.73;110554;1267;23411;-56
2024/04/13 06:56:42;;;;;;;;;;;;;;;25.44;34.69;102284.94;110597;1267;22426;-57
2024/04/13 06:59:09;;;;;;;;;;;;;;;25.68;34.53;102286.31;110552;1274;22416;-56
2024/04/13 07:01:36;;;;;;;;;;;;;;;25.84;34.13;102289.58;110431;1257;22470;-56
2024/04/13 07:04:03;;;;;;;;;;;;;;;25.90;33.63;102286.94;110602;1264;22477;-56
2024/04/13 07:06:34;;;;;;;;;;;;;;;25.92;33.92;102290.90;110606;1257;23228;-56
2024/04/13 07:09:01;;;;;;;;;;;;;;;25.96;33.92;102291.18;110370;1272;22541;-56
2024/04/13 07:11:28;;;;;;;;;;;;;;;26.03;33.20;102291.63;110563;1274;23363;-56
2024/04/13 07:13:55;;;;;;;;;;;;;;;25.97;33.07;102295.05;110555;1267;22522;-56
2024/04/13 07:16:21;;;;;;;;;;;;;;;25.90;33.65;102291.92;110280;1261;22448;-56
2024/04/13 07:18:48;;;;;;;;;;;;;;;25.99;33.73;102289.79;110411;1258;22534;-56
2024/04/13 07:21:15;;;;;;;;;;;;;;;26.08;33.49;102291.88;110596;1255;22496;-56
2024/04/13 07:23:42;;;;;;;;;;;;;;;26.06;33.51;102293.42;110575;1256;22582;-56
2024/04/13 07:26:08;;;;;;;;;;;;;;;26.12;33.56;102293.20;110404;1267;22475;-56
2024/04/13 07:28:35;;;;;;;;;;;;;;;26.17;33.28;102290.61;110583;1274;22468;-57
2024/04/13 07:31:02;;;;;;;;;;;;;;;26.08;33.33;102288.66;110562;1267;22517;-56
2024/04/13 07:33:29;;;;;;;;;;;;;;;25.96;33.85;102291.00;110567;1263;23259;-56
2024/04/13 07:35:56;;;;;;;;;;;;;;;25.84;33.87;102289.63;110389;1262;23245;-56
2024/04/13 07:38:24;;;;;;;;;;;;;;;25.73;34.18;102293.83;110513;1268;22441;-56
2024/04/13 07:40:50;;;;;;;;;;;;;;;25.62;34.32;102290.40;110561;1274;22476;-56
2024/04/13 07:43:17;;;;;;;;;;;;;;;25.55;34.81;102290.88;110545;1267;22423;-56
2024/04/13 07:45:45;;;;;;;;;;;;;;;25.45;34.71;102288.61;110397;1270;22468;-56
2024/04/13 07:48:12;;;;;;;;;;;;;;;25.34;34.88;102285.01;110519;1267;22556;-56
2024/04/13 07:50:38;;;;;;;;;;;;;;;25.22;35.12;102282.54;110545;1270;22429;-56
2024/04/13 07:53:05;;;;;;;;;;;;;;;25.15;35.74;102282.08;110560;1266;23332;-56
2024/04/13 07:55:32;;;;;;;;;;;;;;;25.10;36.15;102281.09;110393;1269;22475;-56
2024/04/13 07:57:59;;;;;;;;;;;;;;;25.03;35.97;102283.13;110510;1268;22419;-56
2024/04/13 08:00:25;;;;;;;;;;;;;;;24.87;36.54;102280.69;110628;1266;22437;-55
2024/04/13 08:02:52;;;;;;;;;;;;;;;24.70;36.78;102279.31;110533;1270;22446;-55
2024/04/13 08:05:19;;;;;;;;;;;;;;;24.49;36.96;102273.77;110538;1274;23179;-55
2024/04/13 08:07:46;;;;;;;;;;;;;;;24.39;37.48;102275.93;109052;1266;1003035;-55
2024/04/13 08:10:12;;;;;;;;;;;;;;;24.32;37.32;102275.83;110216;1274;22454;-55
2024/04/13 08:12:39;;;;;;;;;;;;;;;24.24;37.57;102268.73;110436;1256;22462;-55
2024/04/13 08:15:08;;;;;;;;;;;;;;;24.22;37.75;102267.12;110557;1267;22516;-56
2024/04/13 08:17:35;;;;;;;;;;;;;;;24.23;37.91;102265.46;110552;1267;22441;-55
2024/04/13 08:20:04;;;;;;;;;;;;;;;24.31;38.25;102264.70;110611;1267;23201;-55
2024/04/13 08:22:31;;;;;;;;;;;;;;;24.47;38.57;102262.02;110558;1274;22877;-55
2024/04/13 08:24:58;;;;;;;;;;;;;;;24.58;38.16;102259.27;110527;1266;23211;-55
2024/04/13 08:27:25;;;;;;;;;;;;;;;24.63;37.54;102255.96;110533;1268;22511;-55
2024/04/13 08:29:52;;;;;;;;;;;;;;;24.65;37.52;102257.77;110517;1268;23308;-56
2024/04/13 08:32:20;;;;;;;;;;;;;;;24.69;37.87;102253.85;109369;1267;1002552;-56
2024/04/13 08:34:47;;;;;;;;;;;;;;;24.72;38.46;102251.02;110566;1274;22434;-56
2024/04/13 08:37:14;;;;;;;;;;;;;;;24.69;38.46;102248.14;109021;1274;1003081;-55
2024/04/13 08:39:41;;;;;;;;;;;;;;;24.66;38.93;102244.42;110573;1271;22530;-56
2024/04/13 08:42:08;;;;;;;;;;;;;;;24.66;39.21;102239.11;110594;1267;22421;-55
2024/04/13 08:44:35;;;;;;;;;;;;;;;24.66;38.58;102241.77;110568;1267;22457;-55
2024/04/13 08:47:02;;;;;;;;;;;;;;;24.58;38.84;102235.48;110463;1268;22563;-55
2024/04/13 08:49:29;;;;;;;;;;;;;;;24.52;38.92;102235.63;110548;1267;23112;-55
2024/04/13 08:51:57;;;;;;;;;;;;;;;24.52;39.19;102233.33;110216;1275;22431;-55
2024/04/13 08:54:24;;;;;;;;;;;;;;;24.56;39.63;102229.58;110457;1274;22429;-55
2024/04/13 08:56:51;;;;;;;;;;;;;;;24.61;39.66;102227.87;110528;1274;22431;-55
2024/04/13 08:59:17;;;;;;;;;;;;;;;24.63;38.93;102224.16;110579;1270;22390;-55
2024/04/13 09:01:45;;;;;;;;;;;;;;;24.61;39.19;102221.28;110428;1270;23108;-56
2024/04/13 09:04:15;;;;;;;;;;;;;;;24.62;39.58;102217.12;110421;1266;22535;-55
2024/04/13 09:06:43;;;;;;;;;;;;;;;24.69;39.58;102214.05;110596;1266;23333;-55
2024/04/13 09:09:13;;;;;;;;;;;;;;;24.77;39.29;102204.56;110533;1274;23346;-55
2024/04/13 09:11:40;;;;;;;;;;;;;;;24.84;38.53;102203.45;110555;1274;22491;-55
2024/04/13 09:14:07;;;;;;;;;;;;;;;24.87;37.43;102202.05;110562;1274;22439;-55
2024/04/13 09:16:34;;;;;;;;;;;;;;;24.88;37.51;102198.63;110534;1267;22763;-55
2024/04/13 09:19:01;;;;;;;;;;;;;;;24.93;37.99;102195.63;110615;1267;22514;-55
2024/04/13 09:21:34;;;;;;;;;;;;;;;25.04;38.18;102191.08;110603;1253;22427;-55
2024/04/13 09:24:00;;;;;;;;;;;;;;;25.14;37.64;102188.88;110281;1268;22590;-55
2024/04/13 09:26:28;;;;;;;;;;;;;;;25.22;37.58;102190.15;110521;1274;22447;-55
2024/04/13 09:28:55;;;;;;;;;;;;;;;25.32;37.70;102191.50;110548;1267;23240;-55
2024/04/13 09:31:22;;;;;;;;;;;;;;;25.41;37.66;102191.29;109809;1274;1002430;-55
2024/04/13 09:33:49;;;;;;;;;;;;;;;25.50;37.75;102187.57;110626;1267;22514;-55
2024/04/13 09:36:22;;;;;;;;;;;;;;;25.56;37.28;102190.94;110454;1268;22437;-55
2024/04/13 09:38:49;;;;;;;;;;;;;;;25.60;37.03;102191.23;110633;1255;23351;-55
2024/04/13 09:41:16;;;;;;;;;;;;;;;25.59;37.22;102191.42;110610;1267;23124;-56
2024/04/13 09:43:45;;;;;;;;;;;;;;;25.59;37.08;102189.84;110608;1267;22481;-55
2024/04/13 09:46:12;;;;;;;;;;;;;;;25.62;36.78;102185.23;110570;1267;22491;-55
2024/04/13 09:48:40;;;;;;;;;;;;;;;25.64;36.56;102184.18;110564;1267;22421;-55
2024/04/13 09:51:07;;;;;;;;;;;;;;;25.65;37.06;102188.73;110560;1271;23220;-55
2024/04/13 09:53:34;;;;;;;;;;;;;;;25.61;37.09;102184.73;110405;1274;22460;-55
2024/04/13 09:56:00;;;;;;;;;;;;;;;25.62;37.40;102180.78;110573;1266;22428;-56
2024/04/13 09:58:27;;;;;;;;;;;;;;;25.72;37.10;102179.60;110585;1267;22435;-56
2024/04/13 10:00:54;;;;;;;;;;;;;;;25.86;36.98;102170.91;110543;1274;22441;-56
2024/04/13 10:03:21;;;;;;;;;;;;;;;25.98;36.60;102170.30;110559;1274;22447;-56
2024/04/13 10:05:48;;;;;;;;;;;;;;;26.07;35.96;102163.88;110559;1267;22508;-55
2024/04/13 10:08:15;;;;;;;;;;;;;;;26.16;35.67;102162.95;110581;1269;22431;-55
2024/04/13 10:10:46;;;;;;;;;;;;;;;26.28;35.50;102167.51;110602;1266;22449;-55
2024/04/13 10:13:14;;;;;;;;;;;;;;;26.32;35.32;102163.48;110252;1267;22523;-56
2024/04/13 10:15:42;;;;;;;;;;;;;;;26.31;35.18;102164.28;110595;1266;22431;-56
2024/04/13 10:18:08;;;;;;;;;;;;;;;26.30;34.94;102162.23;110594;1267;22507;-56
2024/04/13 10:20:36;;;;;;;;;;;;;;;26.34;35.08;102163.70;110422;1275;22418;-55
2024/04/13 10:23:08;;;;;;;;;;;;;;;26.42;34.63;102161.23;110555;1267;23261;-55
2024/04/13 10:25:35;;;;;;;;;;;;;;;26.44;34.37;102161.47;110570;1266;22451;-55
2024/04/13 10:28:12;;;;;;;;;;;;;;;26.51;33.97;102155.81;110390;1275;22455;-56
2024/04/13 10:30:45;;;;;;;;;;;;;;;26.57;33.60;102149.16;110560;1267;23260;-56
2024/04/13 10:33:23;;;;;;;;;;;;;;;26.62;33.73;102148.67;110457;1270;22574;-56
2024/04/13 10:35:59;;;;;;;;;;;;;;;26.66;33.20;102150.18;110560;1271;22586;-56
2024/04/13 10:38:33;;;;;;;;;;;;;;;26.67;32.63;102143.02;110563;1274;23228;-56
2024/04/13 10:41:01;;;;;;;;;;;;;;;26.68;32.70;102144.52;110553;1274;23327;-56
2024/04/13 10:43:28;;;;;;;;;;;;;;;26.70;32.33;102142.64;110556;1267;22505;-56
2024/04/13 10:45:56;;;;;;;;;;;;;;;26.68;31.47;102139.88;110601;1274;22439;-56
2024/04/13 10:48:24;;;;;;;;;;;;;;;26.69;31.61;102143.77;110561;1267;22491;-55
2024/04/13 10:50:51;;;;;;;;;;;;;;;26.74;31.16;102140.38;110579;1267;22432;-56
2024/04/13 10:53:19;;;;;;;;;;;;;;;26.81;31.17;102141.91;110308;1270;22434;-55
2024/04/13 10:55:46;;;;;;;;;;;;;;;26.85;31.41;102142.14;110578;1267;22473;-55
2024/04/13 10:58:13;;;;;;;;;;;;;;;26.91;31.54;102138.37;110164;1270;328402;-56
2024/04/13 11:00:43;;;;;;;;;;;;;;;26.95;31.48;102130.05;110601;1274;22417;-56
2024/04/13 11:03:10;;;;;;;;;;;;;;;27.00;31.48;102126.70;110565;1263;22436;-56
2024/04/13 11:05:38;;;;;;;;;;;;;;;27.03;31.11;102124.36;110571;1274;22439;-56
2024/04/13 11:08:06;;;;;;;;;;;;;;;27.02;31.10;102123.51;110592;1268;23198;-56
2024/04/13 11:10:33;;;;;;;;;;;;;;;27.00;30.69;102119.73;110591;1267;22474;-55
2024/04/13 11:12:59;;;;;;;;;;;;;;;27.03;30.56;102120.05;110549;1274;22542;-56
2024/04/13 11:15:32;;;;;;;;;;;;;;;27.07;30.24;102114.44;110594;1251;23149;-56
2024/04/13 11:17:59;;;;;;;;;;;;;;;27.11;30.14;102108.48;110598;1274;22400;-56
2024/04/13 11:20:26;;;;;;;;;;;;;;;27.13;29.63;102108.86;110613;1266;22443;-56
2024/04/13 11:22:54;;;;;;;;;;;;;;;27.10;30.45;102102.62;110450;1267;22468;-56
2024/04/13 11:25:21;;;;;;;;;;;;;;;27.08;30.92;102102.80;110578;1274;22751;-56
2024/04/13 11:27:48;;;;;;;;;;;;;;;27.05;30.07;102108.19;110596;1274;22589;-55
2024/04/13 11:30:15;;;;;;;;;;;;;;;27.04;30.74;102100.41;110602;1274;23222;-56
2024/04/13 11:32:42;;;;;;;;;;;;;;;27.05;31.20;102099.08;110466;1273;22414;-56
2024/04/13 11:35:12;;;;;;;;;;;;;;;27.05;30.87;102094.62;110539;1274;22446;-56
2024/04/13 11:37:39;;;;;;;;;;;;;;;27.08;30.87;102094.58;110407;1271;23205;-56
2024/04/13 11:40:09;;;;;;;;;;;;;;;27.12;31.15;102090.05;110562;1268;22433;-55
2024/04/13 11:42:39;;;;;;;;;;;;;;;27.12;30.11;102091.59;110593;1274;23281;-56
2024/04/13 11:45:19;;;;;;;;;;;;;;;27.19;29.92;102090.74;110528;1274;22482;-56
2024/04/13 11:47:46;;;;;;;;;;;;;;;27.20;30.26;102088.00;110591;1274;22527;-56
2024/04/13 11:50:13;;;;;;;;;;;;;;;27.21;30.58;102083.33;110553;1274;22439;-55
2024/04/13 11:52:39;;;;;;;;;;;;;;;27.15;31.18;102078.73;110524;1274;22429;-56
2024/04/13 11:55:06;;;;;;;;;;;;;;;27.13;30.99;102070.20;110590;1267;22457;-56
2024/04/13 11:57:42;;;;;;;;;;;;;;;27.16;30.93;102068.02;110584;1267;22453;-56
2024/04/13 12:00:09;;;;;;;;;;;;;;;27.18;30.17;102066.63;110301;1269;22456;-55
2024/04/13 12:02:39;;;;;;;;;;;;;;;27.23;30.11;102066.08;110571;1267;23202;-56
2024/04/13 12:05:06;;;;;;;;;;;;;;;27.28;30.46;102065.94;110581;1274;22848;-56
2024/04/13 12:07:33;;;;;;;;;;;;;;;27.36;30.33;102062.33;110584;1267;22481;-55
2024/04/13 12:10:00;;;;;;;;;;;;;;;27.39;31.02;102057.83;110578;1270;22423;-55
2024/04/13 12:12:27;;;;;;;;;;;;;;;27.42;30.36;102057.62;110588;1267;22412;-56
2024/04/13 12:14:54;;;;;;;;;;;;;;;27.41;29.69;102052.75;110583;1266;22773;-55
2024/04/13 12:17:22;;;;;;;;;;;;;;;27.42;30.28;102049.66;110539;1274;22446;-56
2024/04/13 12:19:49;;;;;;;;;;;;;;;27.45;30.02;102046.00;110551;1271;22449;-56
2024/04/13 12:22:16;;;;;;;;;;;;;;;27.49;29.90;102045.52;110606;1274;23149;-56
2024/04/13 12:24:43;;;;;;;;;;;;;;;27.54;30.42;102039.14;110277;1271;22415;-55
2024/04/13 12:27:09;;;;;;;;;;;;;;;27.55;30.22;102036.19;110563;1274;22445;-56